Time;durP1;ratioP1;P1;durP2;ratioP2;P2;SDS_P1;SDS_P2;PMS_P1;PMS_P2;Temp;Humidity;BMP_temperature;BMP_pressure;BME280_temperature;BME280_humidity;BME280_pressure;Samples;Min_cycle;Max_cycle;Signal;HPM_P1;HPM_P2
2022/01/23 00:02:09;;;;;;;17.30;12.30;;;;;;;3.00;97.64;96884.69;4405491;32;20351;-57
2022/01/23 00:04:35;;;;;;;18.57;13.50;;;;;;;2.99;97.98;96880.47;4387930;32;20280;-57
2022/01/23 00:07:04;;;;;;;18.17;13.80;;;;;;;2.96;98.57;96881.69;4384011;32;20307;-56
2022/01/23 00:09:30;;;;;;;18.77;12.30;;;;;;;3.12;98.07;96895.38;4383291;32;20187;-57
2022/01/23 00:11:56;;;;;;;16.67;12.30;;;;;;;3.01;98.12;96886.31;4392589;32;20327;-57
2022/01/23 00:17:18;;;;;;;16.17;12.33;;;;;;;3.22;97.68;96896.53;4383603;32;20328;-57
2022/01/23 00:19:49;;;;;;;15.73;12.07;;;;;;;3.28;97.11;96885.22;4379608;32;20310;-57
2022/01/23 00:22:16;;;;;;;15.67;12.33;;;;;;;3.19;97.27;96875.97;4380811;32;20276;-57
2022/01/23 00:30:22;;;;;;;15.13;11.73;;;;;;;3.26;96.95;96870.69;4379607;32;20391;-58
2022/01/23 00:32:48;;;;;;;16.13;12.50;;;;;;;3.25;97.25;96875.13;4386259;32;20366;-57
2022/01/23 00:35:13;;;;;;;16.63;11.87;;;;;;;3.14;97.33;96862.66;4397786;32;20279;-57
2022/01/23 00:37:38;;;;;;;15.33;11.20;;;;;;;3.22;96.82;96872.94;4387770;32;20223;-58
2022/01/23 00:40:05;;;;;;;14.53;11.07;;;;;;;3.26;96.31;96866.25;4386567;32;20206;-57
2022/01/23 00:42:31;;;;;;;15.17;11.50;;;;;;;3.30;95.87;96872.72;4386494;32;20237;-56
2022/01/23 00:45:10;;;;;;;12.13;10.83;;;;;;;3.14;96.44;96869.72;4397490;32;20268;-57
2022/01/23 00:47:36;;;;;;;16.50;11.70;;;;;;;3.22;96.46;96874.75;4383378;32;20176;-57
2022/01/23 00:50:01;;;;;;;17.00;11.37;;;;;;;3.21;96.94;96875.75;4391199;32;20282;-57
2022/01/23 00:52:27;;;;;;;14.50;11.00;;;;;;;3.21;96.34;96871.31;4395571;32;20207;-57
2022/01/23 00:54:52;;;;;;;15.57;11.87;;;;;;;3.17;96.70;96871.94;4385609;32;20172;-58
2022/01/23 00:57:17;;;;;;;15.07;11.33;;;;;;;3.18;96.36;96876.16;4385968;32;20173;-57
2022/01/23 00:59:43;;;;;;;14.23;10.83;;;;;;;3.34;95.80;96881.75;4379204;32;20185;-58
2022/01/23 01:02:08;;;;;;;15.63;11.77;;;;;;;3.19;96.80;96886.44;4384669;32;20266;-57
2022/01/23 01:04:33;;;;;;;12.37;10.50;;;;;;;3.30;96.22;96877.94;4370543;32;20180;-57
2022/01/23 01:06:59;;;;;;;12.57;10.90;;;;;;;3.38;96.08;96879.50;4377651;32;20249;-58
2022/01/23 01:09:24;;;;;;;13.30;11.03;;;;;;;3.50;95.13;96875.22;4394183;32;20257;-58
2022/01/23 01:11:58;;;;;;;13.30;10.13;;;;;;;3.25;95.91;96875.13;4380798;32;20199;-58
2022/01/23 01:30:54;;;;;;;12.97;11.37;;;;;;;3.11;96.20;96886.69;4388250;32;20313;-58
2022/01/23 01:33:35;;;;;;;16.00;10.73;;;;;;;3.29;96.41;96886.81;4398776;32;20273;-57
2022/01/23 01:36:21;;;;;;;13.73;10.80;;;;;;;3.32;95.90;96885.59;4380748;32;20329;-57
2022/01/23 01:38:48;;;;;;;12.73;10.37;;;;;;;3.16;96.32;96889.47;4384348;32;20328;-57
2022/01/23 01:41:15;;;;;;;12.30;9.93;;;;;;;3.22;96.35;96878.16;4380656;32;20276;-57
2022/01/23 01:43:41;;;;;;;12.03;10.17;;;;;;;3.36;95.87;96886.78;4395924;32;20260;-57
2022/01/23 01:46:07;;;;;;;12.93;10.13;;;;;;;3.42;95.49;96884.13;4404669;32;20292;-57
2022/01/23 01:48:32;;;;;;;11.80;10.50;;;;;;;3.35;95.76;96877.28;4393415;32;20268;-57
2022/01/23 01:50:59;;;;;;;15.00;10.50;;;;;;;3.39;95.47;96881.94;4377784;32;20185;-56
2022/01/23 01:53:25;;;;;;;10.97;9.77;;;;;;;3.30;95.14;96880.56;4380915;32;20183;-58
2022/01/23 01:55:55;;;;;;;12.03;10.07;;;;;;;3.33;95.38;96871.47;4370684;32;20291;-57
2022/01/23 02:02:41;;;;;;;13.83;11.00;;;;;;;3.46;94.67;96871.41;4401959;32;20293;-58
2022/01/23 02:09:27;;;;;;;12.40;10.67;;;;;;;3.63;93.92;96872.53;4413760;32;20336;-57
2022/01/23 02:17:27;;;;;;;11.90;10.57;;;;;;;3.47;94.57;96872.22;4374463;32;20292;-58
2022/01/23 02:54:58;;;;;;;12.57;10.30;;;;;;;3.41;95.03;96877.28;4390439;32;20280;-66
2022/01/23 03:00:10;;;;;;;12.03;10.43;;;;;;;3.38;94.83;96872.44;4387224;32;20389;-58
2022/01/23 03:02:41;;;;;;;14.13;11.27;;;;;;;3.48;95.01;96863.34;4391943;32;20299;-58
2022/01/23 03:05:12;;;;;;;12.33;10.37;;;;;;;3.52;94.75;96862.72;4392751;32;20272;-57
2022/01/23 03:10:28;;;;;;;12.00;10.47;;;;;;;3.49;94.44;96876.25;4390512;32;20282;-58
2022/01/23 03:15:59;;;;;;;11.90;10.70;;;;;;;3.50;94.39;96875.22;4410216;32;20333;-57
2022/01/23 03:29:52;;;;;;;12.93;10.60;;;;;;;3.45;94.48;96893.41;4364321;32;20273;-59
2022/01/23 03:32:25;;;;;;;13.17;10.10;;;;;;;3.53;94.28;96877.44;4370066;32;20231;-58
2022/01/23 03:34:51;;;;;;;12.73;10.73;;;;;;;3.44;94.49;96876.87;4388021;32;20318;-58
2022/01/23 03:37:16;;;;;;;10.70;9.60;;;;;;;3.56;94.57;96879.62;4402272;32;20433;-58
2022/01/23 03:39:42;;;;;;;12.33;10.87;;;;;;;3.34;94.88;96883.56;4401671;32;20185;-57
2022/01/23 03:42:08;;;;;;;10.40;9.30;;;;;;;3.54;94.63;96878.22;4385777;32;20176;-57
2022/01/23 03:44:38;;;;;;;10.63;9.53;;;;;;;3.45;94.50;96878.47;4399499;32;20180;-58
2022/01/23 03:47:20;;;;;;;10.90;9.80;;;;;;;3.43;94.25;96866.56;4392593;32;20184;-58
2022/01/23 03:49:48;;;;;;;11.00;9.90;;;;;;;3.55;94.11;96875.37;4396764;32;20317;-58
2022/01/23 03:52:13;;;;;;;11.50;10.30;;;;;;;3.42;94.28;96876.25;4394791;32;20288;-57
2022/01/23 03:54:40;;;;;;;13.30;9.90;;;;;;;3.58;93.76;96876.78;4386823;32;20324;-58
2022/01/23 03:57:06;;;;;;;12.73;9.67;;;;;;;3.60;93.48;96872.12;4365877;32;20248;-58
2022/01/23 03:59:33;;;;;;;13.60;10.23;;;;;;;3.48;93.72;96882.50;4385454;32;20386;-58
2022/01/23 04:01:59;;;;;;;10.53;9.37;;;;;;;3.45;94.16;96885.53;4387551;32;20300;-57
2022/01/23 04:04:42;;;;;;;10.77;9.50;;;;;;;3.56;93.58;96887.47;4383269;32;20287;-58
2022/01/23 04:07:20;;;;;;;10.77;9.57;;;;;;;3.57;93.16;96888.28;4369193;32;20180;-58
2022/01/23 04:09:46;;;;;;;10.17;8.97;;;;;;;3.44;92.97;96897.03;4385946;32;20275;-59
2022/01/23 04:14:57;;;;;;;10.73;9.53;;;;;;;3.50;93.75;96890.97;4380030;32;20287;-58
2022/01/23 04:18:24;;;;;;;12.60;9.87;;;;;;;3.57;93.48;96891.72;4377024;32;20322;-56
2022/01/23 04:33:50;;;;;;;10.97;8.80;;;;;;;3.44;92.65;96887.34;4369120;32;20295;-55
2022/01/23 05:01:08;;;;;;;7.83;7.13;;;;;;;3.39;93.88;96886.38;4380687;32;20309;-58
2022/01/23 05:06:24;;;;;;;10.70;8.67;;;;;;;3.51;92.71;96910.12;4354471;32;20324;-58
2022/01/23 05:08:55;;;;;;;8.63;7.73;;;;;;;3.52;92.64;96912.56;4360126;32;20281;-57
2022/01/23 05:11:20;;;;;;;9.00;8.20;;;;;;;3.53;92.58;96913.34;4368779;32;20280;-58
2022/01/23 05:13:49;;;;;;;10.30;7.60;;;;;;;3.44;92.85;96910.16;4354828;32;20269;-58
2022/01/23 05:16:19;;;;;;;9.37;8.37;;;;;;;3.45;92.81;96906.53;4380934;32;20356;-58
2022/01/23 05:18:49;;;;;;;8.70;7.77;;;;;;;3.51;93.08;96899.66;4383416;32;20379;-58
2022/01/23 05:22:03;;;;;;;8.80;7.53;;;;;;;3.40;92.95;96890.59;4349891;32;20380;-58
2022/01/23 05:24:25;;;;;;;9.87;7.67;;;;;;;3.41;93.53;96889.59;4354954;32;20390;-57
2022/01/23 05:26:58;;;;;;;8.23;7.43;;;;;;;3.29;93.87;96888.66;4379243;32;20344;-58
2022/01/23 05:29:25;;;;;;;8.67;7.80;;;;;;;3.33;93.60;96881.94;4357669;32;20281;-57
2022/01/23 05:31:52;;;;;;;8.40;7.53;;;;;;;3.26;93.67;96881.19;4373788;32;20277;-57
2022/01/23 05:34:22;;;;;;;8.00;7.30;;;;;;;3.27;94.04;96878.38;4329351;32;20279;-58
2022/01/23 05:36:52;;;;;;;6.70;6.10;;;;;;;3.49;93.13;96880.69;4349024;32;20293;-58
2022/01/23 05:39:21;;;;;;;8.60;7.83;;;;;;;3.44;92.94;96865.56;4363373;32;20355;-57
2022/01/23 05:42:04;;;;;;;8.33;7.53;;;;;;;3.44;92.68;96869.00;4366680;32;20279;-58
2022/01/23 05:44:30;;;;;;;7.40;6.43;;;;;;;3.38;92.91;96880.31;4368510;32;20326;-58
2022/01/23 05:46:56;;;;;;;9.20;7.03;;;;;;;3.56;92.23;96889.31;4361309;32;20344;-57
2022/01/23 05:49:23;;;;;;;7.53;6.83;;;;;;;3.70;91.68;96904.78;4343753;32;20311;-58
2022/01/23 05:51:50;;;;;;;10.00;7.37;;;;;;;3.67;91.48;96909.66;4372426;32;20201;-56
2022/01/23 05:54:16;;;;;;;8.10;7.40;;;;;;;3.69;91.63;96918.12;4381545;32;20342;-57
2022/01/23 05:56:54;;;;;;;7.80;7.10;;;;;;;3.61;91.74;96910.47;4365932;32;20298;-57
2022/01/23 05:59:24;;;;;;;8.27;7.47;;;;;;;3.61;91.61;96902.59;4395468;32;20267;-58
2022/01/23 06:01:54;;;;;;;6.93;6.33;;;;;;;3.64;91.70;96907.44;4366116;32;20272;-58
2022/01/23 06:04:25;;;;;;;8.17;7.07;;;;;;;3.73;91.52;96904.38;4349624;32;20329;-57
2022/01/23 06:06:58;;;;;;;7.57;6.93;;;;;;;3.85;90.99;96909.75;4333539;32;20261;-58
2022/01/23 06:09:24;;;;;;;8.23;6.83;;;;;;;3.70;91.54;96896.09;4344275;32;20293;-57
2022/01/23 06:11:50;;;;;;;7.70;6.80;;;;;;;3.73;91.76;96898.31;4379198;32;20354;-56
2022/01/23 06:14:21;;;;;;;7.83;7.13;;;;;;;3.70;91.01;96906.59;4375143;32;20392;-58
2022/01/23 06:16:49;;;;;;;8.13;7.33;;;;;;;3.55;91.65;96906.06;4362352;32;20314;-58
2022/01/23 06:19:14;;;;;;;9.90;7.70;;;;;;;3.66;91.84;96921.16;4342153;32;20276;-58
2022/01/23 06:21:42;;;;;;;8.23;7.50;;;;;;;3.66;91.29;96919.34;4349271;32;20398;-59
2022/01/23 06:24:24;;;;;;;9.33;8.43;;;;;;;3.82;90.81;96928.53;4348174;32;20221;-58
2022/01/23 06:26:53;;;;;;;8.20;7.40;;;;;;;3.73;90.89;96927.19;4376522;32;20291;-58
2022/01/23 06:29:22;;;;;;;9.00;8.10;;;;;;;3.76;91.19;96929.37;4361895;32;20364;-57
2022/01/23 06:31:57;;;;;;;8.77;7.97;;;;;;;3.72;91.13;96929.00;4371640;32;20442;-58
2022/01/23 06:34:23;;;;;;;9.60;8.60;;;;;;;3.62;91.92;96922.59;4341162;32;20265;-57
2022/01/23 06:36:50;;;;;;;8.77;7.87;;;;;;;3.57;92.40;96940.75;4362540;32;20354;-57
2022/01/23 06:39:18;;;;;;;9.53;8.53;;;;;;;3.73;92.18;96932.44;4384773;32;20291;-57
2022/01/23 06:41:45;;;;;;;8.90;8.10;;;;;;;3.61;91.72;96927.03;4363491;32;20280;-56
2022/01/23 06:44:17;;;;;;;8.97;8.00;;;;;;;3.65;91.91;96932.66;4365437;32;20297;-57
2022/01/23 06:46:47;;;;;;;9.83;8.77;;;;;;;3.67;91.31;96938.50;4387607;32;20344;-57
2022/01/23 06:49:13;;;;;;;10.03;8.97;;;;;;;3.79;91.34;96936.81;4384198;32;20276;-58
2022/01/23 06:51:42;;;;;;;10.97;9.13;;;;;;;3.78;91.41;96940.47;4396966;32;20291;-57
2022/01/23 06:54:09;;;;;;;9.07;8.27;;;;;;;3.65;91.71;96940.53;4369330;32;20280;-57
2022/01/23 06:56:36;;;;;;;9.87;8.93;;;;;;;3.68;91.65;96927.81;4366010;32;20341;-58
2022/01/23 06:59:04;;;;;;;8.73;8.03;;;;;;;3.63;91.51;96932.88;4373373;32;20300;-57
2022/01/23 07:01:33;;;;;;;9.50;8.60;;;;;;;3.72;91.71;96933.44;4397485;32;20272;-57
2022/01/23 07:03:59;;;;;;;10.70;9.70;;;;;;;3.80;90.87;96946.31;4398696;32;20271;-65
2022/01/23 07:06:26;;;;;;;10.93;9.23;;;;;;;3.61;91.54;96931.47;4367369;32;20273;-57
2022/01/23 07:08:51;;;;;;;10.30;9.20;;;;;;;3.49;92.26;96928.69;4365506;32;20181;-57
2022/01/23 07:11:18;;;;;;;9.53;8.70;;;;;;;3.57;92.90;96927.63;4394388;32;20349;-57
2022/01/23 07:13:45;;;;;;;10.57;9.53;;;;;;;3.41;92.74;96929.72;4348525;32;20219;-56
2022/01/23 07:16:10;;;;;;;10.07;8.90;;;;;;;3.58;92.63;96926.62;4382445;32;20316;-57
2022/01/23 07:18:36;;;;;;;10.90;9.10;;;;;;;3.66;92.11;96923.78;4388880;32;20365;-57
2022/01/23 07:21:01;;;;;;;10.70;9.43;;;;;;;3.65;92.06;96928.22;4384805;32;20181;-59
2022/01/23 07:23:28;;;;;;;9.43;8.60;;;;;;;3.56;92.73;96949.63;4372602;32;20196;-57
2022/01/23 07:25:53;;;;;;;10.93;9.63;;;;;;;3.73;92.05;96953.41;4379610;32;20206;-57
2022/01/23 07:28:23;;;;;;;10.23;9.27;;;;;;;3.83;91.72;96961.63;4372015;32;20298;-57
2022/01/23 07:33:15;;;;;;;11.33;9.47;;;;;;;3.80;91.10;96962.06;4391630;32;20267;-56
2022/01/23 07:35:40;;;;;;;10.87;9.83;;;;;;;3.67;91.73;96970.00;4369798;32;20202;-56
2022/01/23 07:38:09;;;;;;;10.43;9.30;;;;;;;3.65;92.35;96974.63;4353692;32;20296;-56
2022/01/23 07:40:36;;;;;;;9.87;8.97;;;;;;;3.93;91.38;96983.00;4346037;32;20261;-56
2022/01/23 07:43:03;;;;;;;10.70;9.60;;;;;;;3.73;91.63;96980.47;4390518;32;20277;-56
2022/01/23 07:45:30;;;;;;;10.03;9.13;;;;;;;3.61;91.79;96986.56;4351730;32;20339;-56
2022/01/23 07:47:56;;;;;;;10.80;9.47;;;;;;;3.73;91.74;96982.28;4372826;32;20272;-56
2022/01/23 07:50:23;;;;;;;9.67;8.77;;;;;;;3.75;91.84;96986.28;4389089;32;20194;-56
2022/01/23 07:52:49;;;;;;;10.80;9.70;;;;;;;3.79;91.67;96987.50;4368724;32;20420;-57
2022/01/23 07:55:17;;;;;;;10.27;9.27;;;;;;;3.80;91.56;96994.34;4373140;32;20291;-56
2022/01/23 07:57:43;;;;;;;11.10;10.00;;;;;;;3.85;91.08;96996.34;4378043;32;20272;-56
2022/01/23 08:00:11;;;;;;;10.90;9.80;;;;;;;4.03;90.56;97011.41;4387766;32;20275;-56
2022/01/23 08:02:38;;;;;;;10.63;9.53;;;;;;;3.81;90.48;97016.16;4375149;32;20340;-56
2022/01/23 08:05:06;;;;;;;9.93;9.03;;;;;;;3.82;91.20;97009.09;4369393;32;20281;-57
2022/01/23 08:07:34;;;;;;;11.43;10.33;;;;;;;3.88;91.08;97011.69;4370359;32;20286;-56
2022/01/23 08:10:05;;;;;;;10.03;9.03;;;;;;;4.00;90.32;97012.63;4371135;32;20280;-57
2022/01/23 08:12:42;;;;;;;10.57;9.57;;;;;;;3.77;91.08;97009.69;4400277;32;20275;-56
2022/01/23 08:15:10;;;;;;;10.30;9.30;;;;;;;3.93;91.01;97014.50;4387547;32;20355;-54
2022/01/23 08:17:37;;;;;;;10.93;9.73;;;;;;;3.95;90.22;97009.03;4349486;32;20300;-57
2022/01/23 08:20:04;;;;;;;10.13;9.13;;;;;;;3.89;90.63;97023.81;4355262;32;20334;-56
2022/01/23 08:22:32;;;;;;;10.57;9.57;;;;;;;4.05;89.96;97028.56;4388422;32;20320;-57
2022/01/23 08:24:58;;;;;;;10.77;9.40;;;;;;;3.89;90.44;97039.56;4375930;32;20280;-64
2022/01/23 08:27:25;;;;;;;12.23;9.87;;;;;;;3.93;90.44;97035.50;4383320;32;20341;-56
2022/01/23 08:29:50;;;;;;;10.73;9.63;;;;;;;3.99;90.05;97044.34;4353169;32;20223;-56
2022/01/23 08:32:17;;;;;;;10.70;9.60;;;;;;;4.00;90.13;97041.50;4395752;32;20276;-56
2022/01/23 08:34:43;;;;;;;10.30;9.37;;;;;;;3.93;89.87;97046.00;4354907;32;20242;-56
2022/01/23 08:37:10;;;;;;;11.77;10.57;;;;;;;4.04;89.54;97049.78;4355138;32;20296;-56
2022/01/23 08:39:38;;;;;;;11.83;10.47;;;;;;;3.83;90.15;97053.50;4367943;32;20286;-56
2022/01/23 08:42:07;;;;;;;11.73;10.50;;;;;;;4.13;89.55;97046.72;4374116;32;20279;-56
2022/01/23 08:44:36;;;;;;;12.30;10.47;;;;;;;3.99;89.73;97042.53;4367917;32;20323;-56
2022/01/23 08:47:05;;;;;;;11.67;10.47;;;;;;;4.01;90.07;97045.75;4362967;32;20277;-56
2022/01/23 08:49:33;;;;;;;11.07;9.97;;;;;;;3.94;90.24;97033.69;4365270;32;20283;-56
2022/01/23 08:52:02;;;;;;;11.60;10.37;;;;;;;3.96;90.48;97042.94;4367186;32;20292;-61
2022/01/23 08:54:29;;;;;;;12.40;11.10;;;;;;;3.80;91.23;97046.84;4370407;32;20288;-59
2022/01/23 08:56:56;;;;;;;13.57;10.97;;;;;;;3.92;90.74;97033.88;4376859;32;20295;-59
2022/01/23 08:59:24;;;;;;;12.70;11.47;;;;;;;4.05;90.23;97025.12;4360999;32;20279;-58
2022/01/23 09:01:52;;;;;;;11.53;10.33;;;;;;;4.20;89.95;97016.97;4375915;32;20272;-58
2022/01/23 09:04:19;;;;;;;11.10;10.00;;;;;;;4.08;89.34;97017.66;4389798;32;20347;-58
2022/01/23 09:06:46;;;;;;;12.37;11.17;;;;;;;4.26;89.03;97016.94;4366478;32;20276;-58
2022/01/23 09:09:18;;;;;;;12.20;10.93;;;;;;;4.01;89.46;97022.13;4338978;32;20304;-58
2022/01/23 09:12:06;;;;;;;11.47;10.37;;;;;;;4.29;89.04;97016.53;4353368;32;20311;-58
2022/01/23 09:14:36;;;;;;;12.20;10.90;;;;;;;4.16;89.08;97015.81;4364216;32;20360;-58
2022/01/23 09:17:05;;;;;;;12.57;11.30;;;;;;;4.00;89.55;97019.69;4359943;32;20273;-59
2022/01/23 09:19:35;;;;;;;12.10;10.90;;;;;;;4.03;89.96;97025.34;4369871;32;20304;-58
2022/01/23 09:22:03;;;;;;;12.57;11.20;;;;;;;4.05;90.00;97022.50;4367739;32;20289;-59
2022/01/23 09:24:30;;;;;;;12.93;11.27;;;;;;;4.14;89.36;97032.56;4363481;32;20285;-60
2022/01/23 09:27:06;;;;;;;12.53;10.90;;;;;;;4.17;89.31;97025.25;4358927;32;20346;-58
2022/01/23 09:29:36;;;;;;;11.70;10.50;;;;;;;4.27;89.25;97036.94;4384282;32;20280;-59
2022/01/23 09:32:10;;;;;;;12.20;11.00;;;;;;;4.27;88.95;97030.88;4373229;32;20288;-58
2022/01/23 09:34:37;;;;;;;12.00;10.60;;;;;;;4.24;88.63;97024.22;4366328;32;20273;-58
2022/01/23 09:37:09;;;;;;;12.87;11.57;;;;;;;4.21;88.90;97015.97;4362796;32;20294;-59
2022/01/23 09:39:37;;;;;;;12.10;10.57;;;;;;;4.14;89.07;97022.06;4382779;32;20295;-58
2022/01/23 09:42:35;;;;;;;12.93;11.60;;;;;;;4.13;89.81;97015.22;4373672;32;20273;-59
2022/01/23 09:45:05;;;;;;;13.17;11.83;;;;;;;4.20;89.58;97011.72;4377583;32;20322;-57
2022/01/23 09:47:32;;;;;;;14.73;12.33;;;;;;;4.24;89.02;97005.84;4388748;32;20305;-56
2022/01/23 09:50:03;;;;;;;13.37;11.97;;;;;;;4.33;88.44;97017.72;4391388;32;20347;-56
2022/01/23 09:52:35;;;;;;;13.43;11.53;;;;;;;4.30;89.21;97026.00;4391527;32;20271;-57
2022/01/23 09:55:25;;;;;;;12.17;10.97;;;;;;;4.42;88.94;97029.56;4374677;32;20280;-57
2022/01/23 09:57:51;;;;;;;12.60;11.40;;;;;;;4.38;88.64;97024.94;4361188;32;20279;-56
2022/01/23 10:00:24;;;;;;;14.40;12.37;;;;;;;4.35;88.77;97030.66;4356889;32;20300;-57
2022/01/23 10:02:50;;;;;;;15.23;13.63;;;;;;;4.34;88.60;97031.66;4370363;32;20312;-56
2022/01/23 10:05:17;;;;;;;14.60;13.07;;;;;;;4.38;88.16;97027.56;4370397;32;20281;-57
2022/01/23 10:07:43;;;;;;;13.67;12.27;;;;;;;4.20;89.27;97020.41;4391523;32;20277;-56
2022/01/23 10:10:21;;;;;;;13.30;11.90;;;;;;;4.32;89.01;97023.19;4379842;32;20420;-57
2022/01/23 10:12:51;;;;;;;12.57;11.23;;;;;;;4.39;88.28;97021.31;4383090;32;20313;-56
2022/01/23 10:15:19;;;;;;;14.17;12.73;;;;;;;4.26;88.61;97013.50;4379866;32;20280;-56
2022/01/23 10:17:49;;;;;;;12.83;11.53;;;;;;;4.26;88.60;97018.75;4342899;32;20289;-56
2022/01/23 10:20:15;;;;;;;11.73;10.67;;;;;;;4.31;88.98;97017.12;4372364;32;20313;-56
2022/01/23 10:22:45;;;;;;;13.10;11.77;;;;;;;4.48;88.06;97014.78;4370391;32;20276;-56
2022/01/23 10:25:16;;;;;;;12.47;11.17;;;;;;;4.50;87.78;97012.75;4363641;32;20248;-57
2022/01/23 10:28:07;;;;;;;12.43;11.23;;;;;;;4.43;87.09;97017.22;4373886;32;20286;-57
2022/01/23 10:30:43;;;;;;;12.07;10.77;;;;;;;4.48;87.40;97018.22;4374127;32;20276;-57
2022/01/23 10:33:37;;;;;;;13.03;11.63;;;;;;;4.59;87.40;97016.72;4394510;32;20367;-57
2022/01/23 10:36:13;;;;;;;11.90;10.70;;;;;;;4.69;87.64;97003.91;4385579;32;20284;-57
2022/01/23 10:39:07;;;;;;;12.93;11.53;;;;;;;4.66;86.74;97012.22;4358157;32;20344;-57
2022/01/23 10:41:49;;;;;;;13.40;11.93;;;;;;;4.86;85.74;97003.38;4383538;32;20284;-58
2022/01/23 10:49:58;;;;;;;13.33;12.03;;;;;;;4.68;87.27;97002.31;4396950;32;20260;-57
2022/01/23 10:52:47;;;;;;;13.30;11.97;;;;;;;4.67;87.68;97005.94;4351278;32;20339;-57
2022/01/23 10:55:34;;;;;;;14.10;12.60;;;;;;;4.75;87.03;97008.31;4363477;32;20285;-57
2022/01/23 10:58:03;;;;;;;12.53;11.20;;;;;;;4.96;86.01;97003.72;4358206;32;20314;-58
2022/01/23 11:00:39;;;;;;;12.43;11.07;;;;;;;4.72;85.60;97008.75;4371357;32;20377;-60
2022/01/23 11:03:23;;;;;;;13.47;11.93;;;;;;;4.76;85.86;97009.94;4365600;32;20290;-57
2022/01/23 11:05:50;;;;;;;13.27;11.97;;;;;;;4.81;85.67;97006.66;4377078;32;22213;-57
2022/01/23 11:08:27;;;;;;;12.83;11.57;;;;;;;4.96;85.23;97003.72;4336806;32;20288;-57
2022/01/23 11:11:38;;;;;;;12.73;11.53;;;;;;;4.98;85.21;97005.09;4373494;32;20303;-58
2022/01/23 11:17:33;;;;;;;13.13;11.83;;;;;;;5.02;84.27;96997.56;4292122;33;20378;-58
2022/01/23 11:20:00;;;;;;;14.40;12.90;;;;;;;5.07;83.94;96995.09;4304600;33;20295;-64
2022/01/23 11:22:36;;;;;;;12.80;11.57;;;;;;;5.08;83.94;96987.00;4308456;32;20322;-57
2022/01/23 11:25:08;;;;;;;12.67;11.37;;;;;;;5.12;84.49;96987.38;4379672;32;20300;-57
2022/01/23 11:27:39;;;;;;;13.20;11.87;;;;;;;5.15;84.07;96982.47;4372533;32;20275;-58
2022/01/23 11:30:13;;;;;;;12.13;10.93;;;;;;;5.06;84.15;96988.22;4357854;32;20348;-57
2022/01/23 11:32:41;;;;;;;12.77;11.43;;;;;;;5.00;84.87;96983.81;4375210;32;20269;-57
2022/01/23 11:35:19;;;;;;;13.37;10.93;;;;;;;4.97;84.93;96986.91;4365322;32;20284;-58
2022/01/23 11:37:51;;;;;;;12.43;11.17;;;;;;;5.02;84.83;96987.03;4376692;32;20321;-57
2022/01/23 11:54:52;;;;;;;12.97;11.57;;;;;;;5.21;83.25;96978.16;4381948;32;20326;-58
2022/01/23 11:57:44;;;;;;;12.67;11.47;;;;;;;5.12;83.59;96985.53;4379214;32;20275;-58
2022/01/23 12:00:19;;;;;;;13.73;12.33;;;;;;;5.16;83.29;96984.09;4369285;32;20263;-57
2022/01/23 12:03:10;;;;;;;12.17;10.97;;;;;;;5.14;82.84;96969.53;4389640;32;20260;-57
2022/01/23 12:05:39;;;;;;;12.03;10.77;;;;;;;5.18;82.38;96968.09;4381259;32;20279;-57
2022/01/23 12:08:19;;;;;;;12.57;11.27;;;;;;;5.06;82.92;96961.94;4381490;32;20269;-57
2022/01/23 12:17:03;;;;;;;13.23;11.83;;;;;;;5.49;80.91;96961.88;4341331;32;20267;-57
2022/01/23 12:19:49;;;;;;;12.30;11.00;;;;;;;5.28;81.39;96957.84;4375802;32;20330;-58
2022/01/23 12:22:40;;;;;;;12.53;11.23;;;;;;;5.26;81.36;96952.00;4371840;32;20308;-58
2022/01/23 12:25:11;;;;;;;11.97;10.77;;;;;;;5.20;82.81;96947.59;4364566;32;20291;-58
2022/01/23 12:27:38;;;;;;;13.03;11.57;;;;;;;5.23;82.28;96954.25;4382962;32;20288;-57
2022/01/23 12:30:28;;;;;;;12.77;11.47;;;;;;;5.20;82.62;96946.84;4389063;32;20304;-58
2022/01/23 12:33:29;;;;;;;12.23;10.93;;;;;;;5.11;82.76;96951.56;4389218;32;20271;-58
2022/01/23 12:36:23;;;;;;;12.70;11.50;;;;;;;5.34;82.57;96949.09;4336183;32;20321;-57
2022/01/23 12:39:16;;;;;;;12.63;11.37;;;;;;;5.49;82.07;96940.81;4398446;32;20347;-57
2022/01/23 12:41:57;;;;;;;11.90;10.70;;;;;;;5.53;81.06;96948.06;4358944;32;20293;-58
2022/01/23 12:44:27;;;;;;;13.17;11.77;;;;;;;5.27;81.46;96953.63;4341075;32;20369;-58
2022/01/23 12:46:58;;;;;;;13.37;10.93;;;;;;;5.33;81.73;96958.00;4328810;32;20375;-58
2022/01/23 12:49:38;;;;;;;21.07;14.93;;;;;;;5.38;82.39;96950.28;4292177;32;20316;-57
2022/01/23 12:52:09;;;;;;;15.57;12.70;;;;;;;5.51;81.08;96944.84;4336438;32;20288;-57
2022/01/23 12:54:53;;;;;;;12.97;11.53;;;;;;;5.58;81.38;96960.56;4341610;32;20387;-57
2022/01/23 12:57:42;;;;;;;14.00;11.77;;;;;;;5.56;81.72;96951.28;4341337;32;20281;-57
2022/01/23 13:00:27;;;;;;;13.70;11.97;;;;;;;5.51;80.80;96959.81;4370159;32;20289;-57
2022/01/23 13:02:53;;;;;;;11.93;10.73;;;;;;;5.11;82.46;96959.47;4354981;32;20340;-58
2022/01/23 13:05:20;;;;;;;12.43;11.13;;;;;;;5.06;82.61;96954.03;4365521;32;20268;-57
2022/01/23 13:08:06;;;;;;;12.97;11.67;;;;;;;5.31;81.82;96951.34;4371973;32;20172;-57
2022/01/23 13:11:09;;;;;;;13.77;11.90;;;;;;;4.98;82.08;96952.50;4344865;32;20273;-57
2022/01/23 13:13:50;;;;;;;16.67;14.60;;;;;;;5.21;81.41;96959.75;4364197;32;20313;-57
2022/01/23 13:16:25;;;;;;;10.17;9.17;;;;;;;5.27;81.20;96950.97;4392613;32;20271;-57
2022/01/23 13:19:33;;;;;;;11.57;10.37;;;;;;;5.27;79.65;96945.72;4378856;32;20341;-56
2022/01/23 13:30:23;;;;;;;10.13;9.03;;;;;;;5.46;78.51;96943.88;4381739;32;20382;-59
2022/01/23 13:33:01;;;;;;;11.83;9.53;;;;;;;5.51;78.53;96944.84;4382248;32;20271;-58
2022/01/23 13:35:34;;;;;;;10.40;9.40;;;;;;;5.46;78.49;96944.69;4366299;32;20275;-57
2022/01/23 13:38:03;;;;;;;9.90;8.90;;;;;;;5.61;78.94;96936.41;4394487;32;20267;-58
2022/01/23 13:40:37;;;;;;;8.63;7.83;;;;;;;5.35;79.32;96934.91;4388634;32;20288;-57
2022/01/23 14:02:25;;;;;;;8.77;7.87;;;;;;;5.42;79.90;96925.09;4378048;32;20419;-57
2022/01/23 14:05:14;;;;;;;8.97;8.07;;;;;;;5.42;80.92;96930.37;4356111;32;20280;-58
2022/01/23 14:07:53;;;;;;;10.70;8.60;;;;;;;5.48;81.12;96928.69;4394615;32;20264;-57
2022/01/23 14:10:23;;;;;;;12.87;8.73;;;;;;;5.24;81.94;96922.47;4372401;32;20277;-57
2022/01/23 14:12:52;;;;;;;9.07;8.17;;;;;;;5.32;81.83;96924.03;4365278;32;22756;-58
2022/01/23 14:15:23;;;;;;;9.50;8.37;;;;;;;5.34;81.49;96922.78;4364340;32;20291;-57
2022/01/23 14:18:03;;;;;;;10.23;8.80;;;;;;;5.25;82.35;96924.09;4375148;32;20366;-58
2022/01/23 14:20:33;;;;;;;10.27;9.27;;;;;;;5.26;83.13;96938.03;4377211;32;20295;-66
2022/01/23 14:23:10;;;;;;;10.27;9.23;;;;;;;5.14;83.34;96943.25;4379238;32;20347;-66
2022/01/23 14:25:43;;;;;;;12.00;10.50;;;;;;;5.23;83.62;96939.28;4348380;32;20290;-57
2022/01/23 14:28:13;;;;;;;11.33;9.93;;;;;;;5.26;83.47;96932.78;4384686;32;20271;-58
2022/01/23 14:31:00;;;;;;;10.47;9.37;;;;;;;5.12;84.12;96935.56;4371900;32;20273;-58
2022/01/23 14:33:33;;;;;;;12.03;10.60;;;;;;;5.19;84.50;96938.13;4357964;32;20328;-58
2022/01/23 14:36:26;;;;;;;10.83;9.73;;;;;;;5.14;84.54;96948.50;4392227;32;20277;-58
2022/01/23 14:38:55;;;;;;;14.13;10.77;;;;;;;5.37;83.69;96951.28;4369335;32;20280;-57
2022/01/23 14:41:24;;;;;;;12.47;11.17;;;;;;;5.24;84.33;96950.63;4372858;32;20273;-57
2022/01/23 14:43:55;;;;;;;10.47;9.33;;;;;;;5.09;84.88;96956.25;4356969;32;20364;-57
2022/01/23 14:46:22;;;;;;;11.70;10.47;;;;;;;4.94;85.52;96958.41;4364690;32;20281;-57
2022/01/23 14:49:09;;;;;;;11.30;10.07;;;;;;;4.95;85.97;96960.03;4360649;32;20310;-57
2022/01/23 14:51:38;;;;;;;13.00;9.97;;;;;;;5.11;85.63;96954.19;4366250;32;20359;-57
2022/01/23 14:54:06;;;;;;;11.37;10.27;;;;;;;5.09;85.23;96945.72;4387899;32;20311;-57
2022/01/23 14:56:37;;;;;;;12.40;11.10;;;;;;;5.16;85.15;96952.53;4378538;32;20292;-57
2022/01/23 14:59:09;;;;;;;11.67;9.97;;;;;;;5.07;85.00;96953.03;4389161;32;20279;-58
2022/01/23 15:01:36;;;;;;;10.93;9.83;;;;;;;5.00;85.72;96958.34;4386723;32;20325;-58
2022/01/23 15:04:08;;;;;;;11.30;10.20;;;;;;;5.20;85.35;96954.72;4385964;32;20320;-56
2022/01/23 15:06:47;;;;;;;13.03;10.67;;;;;;;5.23;84.84;96962.16;4395365;32;20318;-56
2022/01/23 15:09:15;;;;;;;13.17;11.50;;;;;;;5.43;84.24;96960.13;4357594;32;20343;-57